createdAt,value
2019-02-14T00:00:43.088Z,14.43
2019-02-14T00:03:12.515Z,16.97
2019-02-14T00:05:41.964Z,16.00
2019-02-14T00:08:11.308Z,17.40
2019-02-14T00:10:40.732Z,21.30
2019-02-14T00:13:10.075Z,60.33
2019-02-14T00:15:39.453Z,80.70
2019-02-14T00:18:08.790Z,49.87
2019-02-14T00:20:38.166Z,17.83
2019-02-14T00:23:07.580Z,18.83
2019-02-14T00:25:37.006Z,18.23
2019-02-14T00:28:06.340Z,28.87
2019-02-14T00:30:35.697Z,21.97
2019-02-14T00:33:05.037Z,16.67
2019-02-14T00:35:34.401Z,16.63
2019-02-14T00:38:03.740Z,18.57
2019-02-14T00:40:33.110Z,17.10
2019-02-14T00:43:02.513Z,28.30
2019-02-14T00:45:31.872Z,22.10
2019-02-14T00:48:01.281Z,14.77
2019-02-14T00:50:30.645Z,13.97
2019-02-14T00:52:59.980Z,14.10
2019-02-14T00:55:29.347Z,15.57
2019-02-14T00:57:58.678Z,14.60
2019-02-14T01:00:28.037Z,15.77
2019-02-14T01:02:57.383Z,13.90
2019-02-14T01:05:33.409Z,14.63
2019-02-14T01:07:57.821Z,14.73
2019-02-14T01:10:27.150Z,14.20
2019-02-14T01:12:56.507Z,16.40
2019-02-14T01:15:27.217Z,14.53
2019-02-14T01:17:56.595Z,16.00
2019-02-14T01:20:25.921Z,15.87
2019-02-14T01:22:55.360Z,16.70
2019-02-14T01:25:24.855Z,15.23
2019-02-14T01:27:54.225Z,15.53
2019-02-14T01:30:23.560Z,14.97
2019-02-14T01:32:53.174Z,15.53
2019-02-14T01:35:22.513Z,15.47
2019-02-14T01:37:51.944Z,15.60
2019-02-14T01:40:21.285Z,13.50
2019-02-14T01:42:51.160Z,14.43
2019-02-14T01:45:20.563Z,14.80
2019-02-14T01:47:50.183Z,13.17
2019-02-14T01:50:19.554Z,13.50
2019-02-14T01:52:48.921Z,13.37
2019-02-14T01:55:18.256Z,13.80
2019-02-14T01:57:48.132Z,13.50
2019-02-14T02:00:18.030Z,14.60
2019-02-14T02:02:47.389Z,14.57
2019-02-14T02:05:16.730Z,47.70
2019-02-14T02:07:46.096Z,24.03
2019-02-14T02:10:15.431Z,37.77
2019-02-14T02:12:44.858Z,16.47
2019-02-14T02:15:14.715Z,25.33
2019-02-14T02:17:44.152Z,14.80
2019-02-14T02:20:13.487Z,13.30
2019-02-14T02:22:42.859Z,13.20
2019-02-14T02:25:12.462Z,12.70
2019-02-14T02:27:41.819Z,12.97
2019-02-14T02:30:13.492Z,14.20
2019-02-14T02:32:42.865Z,13.83
2019-02-14T02:35:12.205Z,13.43
2019-02-14T02:37:41.564Z,13.53
2019-02-14T02:40:10.902Z,12.57
2019-02-14T02:42:40.268Z,12.43
2019-02-14T02:45:11.543Z,12.57
2019-02-14T02:47:40.908Z,13.90
2019-02-14T02:50:11.876Z,12.53
2019-02-14T02:52:41.241Z,13.13
2019-02-14T02:55:10.854Z,12.47
2019-02-14T02:57:40.219Z,12.73
2019-02-14T03:00:12.649Z,13.27
2019-02-14T03:02:42.007Z,12.33
2019-02-14T03:05:12.986Z,12.53
2019-02-14T03:07:42.364Z,12.73
2019-02-14T03:10:13.230Z,12.30
2019-02-14T03:12:42.601Z,13.23
2019-02-14T03:15:13.677Z,12.57
2019-02-14T03:17:43.040Z,12.67
2019-02-14T03:20:13.027Z,14.73
2019-02-14T03:22:42.375Z,12.50
2019-02-14T03:25:18.909Z,13.20
2019-02-14T03:27:48.281Z,13.83
2019-02-14T03:30:17.625Z,12.60
2019-02-14T03:32:46.974Z,12.83
2019-02-14T03:35:16.318Z,13.57
2019-02-14T03:37:45.682Z,14.10
2019-02-14T03:40:15.284Z,18.63
2019-02-14T03:42:44.651Z,12.53
2019-02-14T03:45:18.963Z,15.70
2019-02-14T03:47:48.374Z,16.20
2019-02-14T03:50:17.654Z,23.00
2019-02-14T03:52:47.015Z,16.80
2019-02-14T03:55:16.360Z,14.33
2019-02-14T03:57:46.162Z,14.40
2019-02-14T04:00:16.749Z,13.77
2019-02-14T04:02:46.380Z,13.23
2019-02-14T04:05:15.709Z,14.40
2019-02-14T04:07:45.063Z,15.17
2019-02-14T04:10:14.733Z,14.70
2019-02-14T04:12:44.108Z,13.90
2019-02-14T04:15:16.047Z,14.30
2019-02-14T04:17:45.420Z,14.23
2019-02-14T04:20:14.751Z,13.57
2019-02-14T04:22:44.111Z,14.83
2019-02-14T04:25:13.471Z,13.77
2019-02-14T04:27:42.838Z,13.50
2019-02-14T04:30:13.242Z,14.13
2019-02-14T04:32:42.576Z,13.87
2019-02-14T04:35:11.964Z,13.83
2019-02-14T04:37:41.278Z,14.93
2019-02-14T04:40:13.755Z,14.83
2019-02-14T04:42:43.085Z,14.93
2019-02-14T04:45:13.313Z,14.87
2019-02-14T04:47:43.024Z,13.37
2019-02-14T04:50:12.397Z,15.00
2019-02-14T04:52:41.729Z,14.67
2019-02-14T04:55:11.523Z,15.33
2019-02-14T04:57:40.862Z,14.57
2019-02-14T05:00:14.306Z,13.90
2019-02-14T05:02:43.644Z,14.37
2019-02-14T05:05:13.006Z,15.43
2019-02-14T05:07:43.378Z,14.20
2019-02-14T05:10:19.715Z,14.90
2019-02-14T05:12:52.285Z,14.10
2019-02-14T05:15:37.102Z,18.03
2019-02-14T05:18:05.265Z,19.07
2019-02-14T05:20:34.680Z,42.37
2019-02-14T05:23:04.013Z,34.57
2019-02-14T05:25:36.896Z,26.40
2019-02-14T05:28:12.235Z,14.63
2019-02-14T05:30:41.565Z,15.00
2019-02-14T05:33:10.909Z,16.73
2019-02-14T05:35:50.381Z,15.60
2019-02-14T05:38:36.302Z,15.97
2019-02-14T05:40:59.287Z,17.97
2019-02-14T05:43:29.558Z,17.93
2019-02-14T05:45:58.927Z,17.73
2019-02-14T05:48:34.966Z,17.73
2019-02-14T05:51:02.967Z,17.77
2019-02-14T05:53:41.882Z,17.10
2019-02-14T05:56:11.465Z,16.20
2019-02-14T05:58:40.798Z,17.00
2019-02-14T06:01:14.994Z,17.80
2019-02-14T06:03:44.420Z,18.13
2019-02-14T06:06:13.870Z,18.03
2019-02-14T06:08:43.209Z,17.27
2019-02-14T06:11:12.711Z,18.73
2019-02-14T06:13:42.057Z,18.47
2019-02-14T06:16:13.226Z,18.87
2019-02-14T06:18:44.458Z,19.70
2019-02-14T06:21:18.116Z,19.40
2019-02-14T06:23:49.250Z,20.23
2019-02-14T06:26:20.600Z,19.37
2019-02-14T06:28:52.868Z,25.37
2019-02-14T06:31:22.839Z,23.20
2019-02-14T06:33:52.761Z,25.87
2019-02-14T06:36:24.249Z,42.37
2019-02-14T06:38:56.511Z,31.13
2019-02-14T06:41:28.452Z,25.77
2019-02-14T06:44:01.156Z,21.53
2019-02-14T06:46:34.777Z,29.70
2019-02-14T06:49:06.385Z,22.20
2019-02-14T06:51:36.366Z,20.17
2019-02-14T06:54:09.521Z,20.57
2019-02-14T06:56:47.234Z,19.13
2019-02-14T06:59:17.956Z,26.33
2019-02-14T07:01:51.135Z,20.83
2019-02-14T07:04:27.184Z,22.10
2019-02-14T07:06:59.116Z,21.50
2019-02-14T07:09:29.237Z,21.47
2019-02-14T07:12:06.898Z,19.77
2019-02-14T07:14:41.676Z,19.67
2019-02-14T07:17:19.194Z,19.40
2019-02-14T07:19:49.955Z,19.47
2019-02-14T07:22:21.931Z,19.70
2019-02-14T07:24:57.783Z,20.17
2019-02-14T07:27:32.670Z,24.20
2019-02-14T07:30:02.622Z,26.77
2019-02-14T07:32:36.893Z,23.27
2019-02-14T07:35:08.851Z,22.73
2019-02-14T07:37:42.806Z,18.70
2019-02-14T07:40:15.946Z,21.63
2019-02-14T07:42:48.095Z,19.97
2019-02-14T07:45:18.516Z,19.83
2019-02-14T07:47:49.099Z,18.77
2019-02-14T07:50:19.067Z,18.70
2019-02-14T07:52:49.158Z,18.40
2019-02-14T07:55:20.224Z,19.27
2019-02-14T07:57:54.047Z,19.33
2019-02-14T08:00:26.876Z,18.47
2019-02-14T08:02:56.817Z,19.03
2019-02-14T08:05:30.345Z,18.70
2019-02-14T08:08:01.581Z,20.47
2019-02-14T08:10:32.232Z,19.60
2019-02-14T08:13:06.289Z,18.80
2019-02-14T08:15:43.135Z,30.57
2019-02-14T08:18:14.341Z,27.23
2019-02-14T08:20:44.337Z,20.50
2019-02-14T08:23:15.395Z,24.87
2019-02-14T08:25:51.689Z,27.07
2019-02-14T08:28:27.392Z,24.17
2019-02-14T08:31:06.888Z,18.57
2019-02-14T08:33:46.425Z,17.83
2019-02-14T08:36:22.385Z,17.90
2019-02-14T08:38:55.373Z,17.43
2019-02-14T08:41:28.308Z,17.43
2019-02-14T08:44:01.894Z,18.03
2019-02-14T08:46:31.885Z,17.23
2019-02-14T08:49:04.342Z,16.83
2019-02-14T08:51:39.404Z,17.77
2019-02-14T08:54:13.585Z,16.63
2019-02-14T08:56:50.283Z,16.20
2019-02-14T08:59:20.187Z,16.53
2019-02-14T09:01:52.320Z,15.83
2019-02-14T09:04:30.246Z,16.47
2019-02-14T09:07:11.239Z,15.37
2019-02-14T09:09:42.242Z,16.43
2019-02-14T09:12:16.064Z,15.63
2019-02-14T09:14:47.063Z,15.97
2019-02-14T09:17:16.829Z,14.93
2019-02-14T09:19:54.025Z,14.83
2019-02-14T09:22:26.339Z,15.13
2019-02-14T09:24:58.020Z,15.23
2019-02-14T09:27:29.906Z,14.97
2019-02-14T09:30:05.556Z,16.93
2019-02-14T09:32:35.986Z,15.03
2019-02-14T09:35:08.985Z,13.07
2019-02-14T09:37:38.878Z,14.00
2019-02-14T09:40:11.441Z,12.13
2019-02-14T09:42:43.298Z,12.50
2019-02-14T09:45:14.732Z,30.60
2019-02-14T09:47:44.677Z,13.33
2019-02-14T09:50:17.213Z,12.20
2019-02-14T09:52:48.187Z,13.63
2019-02-14T09:55:18.191Z,11.47
2019-02-14T09:57:48.150Z,12.27
2019-02-14T10:00:18.984Z,12.33
2019-02-14T10:02:52.173Z,12.63
2019-02-14T10:05:26.488Z,13.07
2019-02-14T10:07:57.805Z,12.53
2019-02-14T10:10:31.889Z,12.10
2019-02-14T10:13:06.156Z,12.57
2019-02-14T10:15:52.040Z,12.23
2019-02-14T10:18:25.735Z,10.93
2019-02-14T10:20:58.903Z,10.73
2019-02-14T10:23:35.077Z,11.33
2019-02-14T10:26:06.523Z,12.47
2019-02-14T10:28:35.910Z,11.67
2019-02-14T10:31:05.310Z,11.90
2019-02-14T10:33:37.409Z,13.13
2019-02-14T10:36:13.213Z,10.13
2019-02-14T10:38:44.613Z,10.20
2019-02-14T10:41:17.272Z,10.73
2019-02-14T10:43:49.088Z,10.20
2019-02-14T10:46:21.823Z,9.43
2019-02-14T10:48:51.300Z,9.50
2019-02-14T10:51:20.785Z,8.83
2019-02-14T10:53:50.779Z,9.00
2019-02-14T10:56:24.350Z,8.23
2019-02-14T10:58:56.102Z,8.80
2019-02-14T11:01:30.884Z,10.40
2019-02-14T11:04:02.813Z,11.90
2019-02-14T11:06:32.234Z,8.23
2019-02-14T11:09:05.435Z,8.70
2019-02-14T11:11:35.484Z,8.90
2019-02-14T11:14:04.850Z,9.20
2019-02-14T11:16:34.716Z,10.30
2019-02-14T11:19:06.168Z,9.77
2019-02-14T11:21:39.040Z,9.30
2019-02-14T11:24:08.592Z,10.30
2019-02-14T11:26:39.992Z,9.77
2019-02-14T11:29:14.511Z,10.07
2019-02-14T11:31:50.516Z,10.20
2019-02-14T11:34:26.272Z,9.97
2019-02-14T11:36:59.843Z,9.83
2019-02-14T11:39:31.248Z,10.37
2019-02-14T11:42:01.891Z,11.23
2019-02-14T11:44:39.796Z,12.83
2019-02-14T11:47:09.693Z,10.50
2019-02-14T11:49:41.840Z,10.23
2019-02-14T11:52:12.641Z,11.40
2019-02-14T11:54:42.622Z,12.47
2019-02-14T11:57:14.106Z,10.40
2019-02-14T11:59:44.020Z,9.67
2019-02-14T12:02:16.679Z,11.30
2019-02-14T12:04:47.324Z,17.50
2019-02-14T12:07:18.877Z,13.33
2019-02-14T12:09:49.419Z,9.47
2019-02-14T12:12:22.956Z,10.60
2019-02-14T12:14:54.221Z,11.27
2019-02-14T12:17:25.133Z,12.50
2019-02-14T12:19:58.158Z,14.40
2019-02-14T12:22:34.788Z,9.63
2019-02-14T12:25:11.854Z,10.73
2019-02-14T12:27:43.323Z,10.70
2019-02-14T12:30:20.842Z,11.53
2019-02-14T12:32:57.383Z,9.43
2019-02-14T12:35:28.415Z,8.90
2019-02-14T12:37:58.481Z,9.23
2019-02-14T12:40:32.082Z,9.13
2019-02-14T12:43:06.823Z,9.70
2019-02-14T12:45:38.657Z,8.80
2019-02-14T12:48:12.351Z,9.13
2019-02-14T12:50:45.308Z,9.80
2019-02-14T12:53:20.232Z,9.83
2019-02-14T12:55:55.171Z,10.13
2019-02-14T12:58:26.192Z,8.70
2019-02-14T13:00:58.301Z,9.53
2019-02-14T13:03:30.853Z,9.20
2019-02-14T13:06:00.984Z,9.00
2019-02-14T13:08:30.862Z,9.40
2019-02-14T13:11:00.336Z,9.57
2019-02-14T13:13:30.503Z,9.93
2019-02-14T13:16:05.922Z,11.20
2019-02-14T13:18:39.025Z,14.93
2019-02-14T13:21:14.106Z,10.17
2019-02-14T13:23:47.135Z,14.07
2019-02-14T13:26:25.045Z,12.27
2019-02-14T13:28:55.472Z,11.13
2019-02-14T13:31:32.154Z,9.87
2019-02-14T13:34:00.617Z,11.20
2019-02-14T13:36:31.145Z,10.97
2019-02-14T13:39:06.023Z,11.17
2019-02-14T13:41:36.421Z,11.10
2019-02-14T13:44:09.856Z,10.70
2019-02-14T13:46:41.275Z,11.73
2019-02-14T13:49:10.943Z,11.63
2019-02-14T13:51:41.039Z,11.97
2019-02-14T13:54:10.374Z,11.30
2019-02-14T13:56:39.739Z,11.80
2019-02-14T13:59:10.183Z,12.50
2019-02-14T14:01:39.629Z,13.10
2019-02-14T14:04:09.001Z,12.03
2019-02-14T14:06:38.340Z,13.13
2019-02-14T14:09:08.900Z,12.37
2019-02-14T14:11:38.308Z,13.43
2019-02-14T14:14:07.685Z,13.30
2019-02-14T14:16:37.566Z,11.83
2019-02-14T14:19:08.240Z,11.90
2019-02-14T14:21:41.081Z,11.90
2019-02-14T14:24:16.063Z,11.23
2019-02-14T14:26:51.716Z,12.17
2019-02-14T14:29:25.883Z,12.73
2019-02-14T14:31:56.965Z,10.97
2019-02-14T14:34:27.115Z,13.13
2019-02-14T14:36:57.085Z,12.37
2019-02-14T14:39:29.953Z,11.83
2019-02-14T14:41:59.739Z,12.73
2019-02-14T14:44:31.316Z,12.03
2019-02-14T14:47:01.156Z,13.03
2019-02-14T14:49:36.904Z,13.43
2019-02-14T14:52:16.185Z,23.47
2019-02-14T14:54:45.616Z,14.43
2019-02-14T14:57:15.874Z,16.70
2019-02-14T14:59:47.553Z,33.53
2019-02-14T15:02:23.463Z,11.00
2019-02-14T15:04:55.289Z,11.80
2019-02-14T15:07:32.964Z,12.23
2019-02-14T15:10:02.872Z,11.57
2019-02-14T15:12:35.790Z,13.03
2019-02-14T15:15:10.276Z,12.30
2019-02-14T15:17:40.238Z,11.23
2019-02-14T15:20:12.636Z,10.37
2019-02-14T15:22:46.769Z,11.27
2019-02-14T15:25:20.687Z,12.03
2019-02-14T15:27:50.575Z,11.90
2019-02-14T15:30:20.568Z,12.03
2019-02-14T15:32:52.013Z,12.87
2019-02-14T15:35:26.194Z,13.40
2019-02-14T15:37:56.081Z,14.50
2019-02-14T15:40:26.072Z,15.50
2019-02-14T15:42:57.617Z,18.20
2019-02-14T15:45:28.110Z,19.00
2019-02-14T15:48:00.519Z,19.77
2019-02-14T15:50:34.521Z,50.00
2019-02-14T15:53:10.329Z,27.53
2019-02-14T15:55:43.784Z,19.13
2019-02-14T15:58:15.836Z,24.17
2019-02-14T16:00:49.416Z,18.93
2019-02-14T16:03:19.641Z,21.73
2019-02-14T16:05:53.236Z,22.80
2019-02-14T16:08:27.565Z,20.20
2019-02-14T16:11:02.354Z,21.70
2019-02-14T16:13:38.165Z,20.57
2019-02-14T16:16:08.100Z,20.97
2019-02-14T16:18:40.784Z,19.40
2019-02-14T16:21:15.643Z,19.47
2019-02-14T16:23:46.874Z,17.33
2019-02-14T16:26:18.436Z,18.37
2019-02-14T16:28:52.025Z,18.20
2019-02-14T16:31:23.433Z,23.13
2019-02-14T16:33:53.316Z,23.27
2019-02-14T16:36:23.353Z,33.33
2019-02-14T16:39:01.268Z,23.60
2019-02-14T16:41:35.778Z,24.17
2019-02-14T16:44:09.101Z,21.53
2019-02-14T16:46:44.961Z,23.20
2019-02-14T16:49:19.742Z,23.00
2019-02-14T16:51:55.444Z,20.40
2019-02-14T16:54:28.621Z,21.77
2019-02-14T16:57:00.303Z,21.50
2019-02-14T16:59:29.859Z,20.73
2019-02-14T17:02:07.935Z,26.30
2019-02-14T17:04:37.878Z,33.60
2019-02-14T17:07:09.598Z,22.17
2019-02-14T17:09:41.022Z,20.30
2019-02-14T17:12:10.912Z,21.40
2019-02-14T17:14:45.342Z,20.63
2019-02-14T17:17:17.935Z,22.80
2019-02-14T17:19:52.707Z,21.57
2019-02-14T17:22:23.797Z,20.23
2019-02-14T17:24:56.043Z,20.07
2019-02-14T17:27:30.802Z,20.50
2019-02-14T17:30:04.486Z,20.33
2019-02-14T17:32:34.916Z,18.27
2019-02-14T17:35:05.632Z,19.77
2019-02-14T17:37:37.257Z,25.27
2019-02-14T17:40:09.729Z,21.53
2019-02-14T17:42:46.746Z,20.03
2019-02-14T17:45:16.658Z,18.87
2019-02-14T17:47:47.684Z,19.50
2019-02-14T17:52:46.229Z,19.53
2019-02-14T17:55:19.158Z,19.87
2019-02-14T17:57:52.265Z,19.83
2019-02-14T18:00:22.125Z,29.20
2019-02-14T18:02:55.156Z,25.00
2019-02-14T18:05:26.034Z,21.93
2019-02-14T18:07:58.218Z,18.57
2019-02-14T18:10:31.543Z,19.93
2019-02-14T18:13:06.652Z,20.30
2019-02-14T18:15:37.477Z,21.27
2019-02-14T18:18:06.987Z,21.17
2019-02-14T18:20:36.365Z,22.20
2019-02-14T18:23:05.740Z,22.97
2019-02-14T18:25:35.244Z,22.27
2019-02-14T18:28:04.680Z,22.67
2019-02-14T18:30:34.012Z,22.13
2019-02-14T18:33:03.389Z,21.70
2019-02-14T18:35:32.753Z,22.67
2019-02-14T18:38:02.115Z,22.97
2019-02-14T18:40:31.447Z,21.30
2019-02-14T18:43:00.821Z,22.10
2019-02-14T18:45:30.221Z,24.33
2019-02-14T18:47:59.611Z,23.87
2019-02-14T18:50:28.942Z,22.23
2019-02-14T18:52:58.330Z,22.00
2019-02-14T18:55:27.668Z,23.13
2019-02-14T18:57:57.054Z,22.00
2019-02-14T19:00:26.391Z,22.47
2019-02-14T19:02:55.772Z,23.77
2019-02-14T19:05:25.189Z,24.30
2019-02-14T19:07:54.788Z,23.60
2019-02-14T19:10:24.167Z,24.20
2019-02-14T19:12:55.717Z,25.07
2019-02-14T19:15:29.572Z,23.47
2019-02-14T19:17:59.081Z,28.10
2019-02-14T19:20:28.471Z,26.57
2019-02-14T19:22:57.822Z,26.50
2019-02-14T19:25:29.653Z,29.70
2019-02-14T19:27:58.258Z,32.43
2019-02-14T19:30:33.355Z,32.07
2019-02-14T19:33:02.780Z,42.87
2019-02-14T19:35:32.242Z,37.17
2019-02-14T19:38:01.655Z,34.13
2019-02-14T19:40:31.057Z,31.90
2019-02-14T19:43:00.484Z,30.10
2019-02-14T19:45:36.400Z,27.93
2019-02-14T19:48:01.108Z,27.97
2019-02-14T19:50:31.829Z,26.07
2019-02-14T19:53:01.699Z,26.20
2019-02-14T19:55:31.071Z,26.13
2019-02-14T19:58:00.480Z,25.80
2019-02-14T20:00:31.378Z,28.60
2019-02-14T20:03:00.832Z,31.40
2019-02-14T20:05:30.220Z,35.37
2019-02-14T20:07:59.609Z,39.00
2019-02-14T20:10:28.983Z,37.47
2019-02-14T20:12:58.331Z,37.27
2019-02-14T20:15:37.081Z,35.00
2019-02-14T20:18:01.873Z,34.97
2019-02-14T20:20:31.606Z,33.60
2019-02-14T20:23:01.312Z,35.23
2019-02-14T20:25:31.057Z,34.73
2019-02-14T20:28:00.390Z,36.07
2019-02-14T20:30:31.833Z,36.07
2019-02-14T20:33:04.740Z,34.57
2019-02-14T20:35:34.449Z,34.17
2019-02-14T20:38:03.844Z,32.90
2019-02-14T20:40:33.218Z,31.80
2019-02-14T20:43:03.057Z,32.67
2019-02-14T20:45:35.073Z,30.47
2019-02-14T20:48:04.411Z,31.60
2019-02-14T20:50:35.239Z,30.33
2019-02-14T20:53:07.843Z,37.40
2019-02-14T20:55:37.209Z,32.90
2019-02-14T20:58:06.536Z,29.10
2019-02-14T21:00:38.681Z,43.57
2019-02-14T21:03:08.020Z,55.17
2019-02-14T21:05:37.424Z,47.23
2019-02-14T21:08:06.858Z,69.83
2019-02-14T21:10:36.240Z,70.03
2019-02-14T21:13:05.564Z,78.33
2019-02-14T21:15:34.935Z,33.80
2019-02-14T21:18:06.939Z,34.80
2019-02-14T21:20:36.314Z,30.53
2019-02-14T21:23:05.664Z,27.77
2019-02-14T21:25:35.071Z,21.47
2019-02-14T21:28:05.496Z,20.90
2019-02-14T21:30:36.343Z,22.07
2019-02-14T21:33:07.592Z,21.63
2019-02-14T21:35:37.148Z,20.00
2019-02-14T21:38:06.956Z,20.20
2019-02-14T21:40:36.336Z,19.33
2019-02-14T21:43:05.819Z,21.60
2019-02-14T21:45:35.361Z,19.57
2019-02-14T21:48:05.701Z,19.93
2019-02-14T21:50:35.118Z,22.60
2019-02-14T21:53:04.466Z,21.60
2019-02-14T21:55:38.043Z,21.23
2019-02-14T21:58:08.543Z,20.20
2019-02-14T22:00:37.886Z,19.90
2019-02-14T22:03:07.375Z,20.70
2019-02-14T22:05:36.808Z,19.47
2019-02-14T22:08:06.143Z,19.00
2019-02-14T22:10:35.779Z,19.37
2019-02-14T22:13:05.130Z,54.97
2019-02-14T22:15:34.485Z,40.63
2019-02-14T22:18:04.098Z,31.57
2019-02-14T22:20:33.463Z,20.70
2019-02-14T22:23:02.836Z,22.60
2019-02-14T22:25:32.182Z,25.20
2019-02-14T22:28:01.554Z,25.03
2019-02-14T22:30:30.885Z,25.37
2019-02-14T22:33:00.250Z,24.67
2019-02-14T22:35:29.581Z,29.93
2019-02-14T22:37:58.956Z,31.77
2019-02-14T22:40:28.292Z,37.23
2019-02-14T22:42:57.656Z,34.23
2019-02-14T22:45:26.985Z,33.83
2019-02-14T22:47:56.340Z,39.03
2019-02-14T22:50:25.679Z,44.97
2019-02-14T22:52:55.042Z,33.33
2019-02-14T22:55:24.823Z,40.80
2019-02-14T22:57:54.184Z,34.27
2019-02-14T23:00:38.286Z,32.73
2019-02-14T23:03:07.668Z,32.27
2019-02-14T23:05:37.001Z,32.80
2019-02-14T23:08:06.364Z,31.60
2019-02-14T23:10:35.705Z,27.83
2019-02-14T23:13:05.089Z,28.27
2019-02-14T23:15:34.428Z,28.77
2019-02-14T23:18:03.957Z,28.30
2019-02-14T23:20:33.284Z,29.57
2019-02-14T23:23:02.649Z,31.37
2019-02-14T23:25:31.985Z,30.23
2019-02-14T23:28:01.342Z,31.77
2019-02-14T23:30:30.673Z,34.10
2019-02-14T23:33:00.112Z,33.57
2019-02-14T23:35:29.441Z,33.20
2019-02-14T23:37:58.809Z,33.30
2019-02-14T23:40:28.149Z,31.90
2019-02-14T23:43:04.329Z,31.30
2019-02-14T23:45:28.552Z,27.40
2019-02-14T23:47:57.909Z,28.70
2019-02-14T23:50:27.246Z,26.83
2019-02-14T23:52:56.605Z,27.17
2019-02-14T23:55:26.093Z,27.60
2019-02-14T23:57:55.458Z,28.43
